Time;durP1;ratioP1;P1;durP2;ratioP2;P2;SDS_P1;SDS_P2;PMS_P1;PMS_P2;Temp;Humidity;BMP_temperature;BMP_pressure;BME280_temperature;BME280_humidity;BME280_pressure;Samples;Min_cycle;Max_cycle;Signal;HPM_P1;HPM_P2
2022/02/18 00:00:32;;;;;;;27.90;19.88;;;;;;;9.43;64.99;98586.69;4978467;28;20118;-92
2022/02/18 00:02:58;;;;;;;29.08;21.45;;;;;;;9.84;64.71;98660.53;4978585;28;20034;-92
2022/02/18 00:05:24;;;;;;;28.52;19.77;;;;;;;9.53;64.42;98595.03;4978328;28;20407;-92
2022/02/18 00:07:50;;;;;;;28.48;20.02;;;;;;;9.81;64.10;98621.38;4995782;28;20466;-91
2022/02/18 00:10:15;;;;;;;25.48;19.63;;;;;;;9.64;64.23;98625.31;4978381;28;20037;-92
2022/02/18 00:12:41;;;;;;;30.35;20.13;;;;;;;10.04;64.19;98668.53;4995748;28;20034;-92
2022/02/18 00:15:07;;;;;;;26.98;20.17;;;;;;;10.07;64.47;98673.41;4978362;28;20026;-92
2022/02/18 00:17:32;;;;;;;30.48;21.23;;;;;;;9.81;63.99;98647.72;4978097;28;20057;-92
2022/02/18 00:19:58;;;;;;;25.05;18.02;;;;;;;10.09;64.58;98695.13;4978048;28;20072;-92
2022/02/18 00:22:24;;;;;;;27.10;19.40;;;;;;;9.96;64.33;98658.97;4995263;28;20030;-92
2022/02/18 00:24:50;;;;;;;25.95;18.88;;;;;;;9.52;64.56;98590.78;4995431;28;20026;-92
2022/02/18 00:27:16;;;;;;;23.63;17.17;;;;;;;9.54;64.01;98594.03;4995365;28;20033;-91
2022/02/18 00:29:41;;;;;;;20.55;14.98;;;;;;;10.25;64.32;98723.84;4977869;28;20065;-91
2022/02/18 00:32:08;;;;;;;22.05;16.83;;;;;;;10.03;63.76;98680.09;4977829;28;20034;-92
2022/02/18 00:34:38;;;;;;;21.15;15.75;;;;;;;9.75;63.50;98627.41;4977765;28;20030;-92
2022/02/18 00:37:05;;;;;;;24.15;17.65;;;;;;;9.68;63.59;98631.84;4995211;28;20037;-92
2022/02/18 00:39:30;;;;;;;20.83;15.23;;;;;;;10.02;63.81;98692.47;4995278;28;20033;-92
2022/02/18 00:41:56;;;;;;;21.27;15.52;;;;;;;9.69;64.32;98639.56;4977844;28;20439;-92
2022/02/18 00:44:22;;;;;;;21.13;14.98;;;;;;;9.99;63.95;98692.84;4977472;28;20040;-92
2022/02/18 00:46:48;;;;;;;17.17;13.48;;;;;;;9.69;63.91;98636.09;4995053;28;20042;-92
2022/02/18 00:49:14;;;;;;;18.88;14.38;;;;;;;10.26;63.48;98719.38;4977707;28;20026;-92
2022/02/18 00:51:39;;;;;;;19.45;14.02;;;;;;;10.40;63.42;98745.66;4977550;28;20364;-91
2022/02/18 00:54:05;;;;;;;38.33;23.17;;;;;;;9.08;63.76;98578.75;4995471;28;20030;-92
2022/02/18 00:56:30;;;;;;;21.88;16.30;;;;;;;9.90;63.79;98667.66;4978035;28;20026;-91
2022/02/18 00:59:00;;;;;;;22.15;16.45;;;;;;;10.29;64.08;98740.91;4977963;28;20105;-91
2022/02/18 01:01:25;;;;;;;20.85;15.40;;;;;;;9.83;63.78;98664.16;4977891;28;20092;-92
2022/02/18 01:03:51;;;;;;;21.70;15.02;;;;;;;9.78;63.37;98674.47;4977783;28;20427;-92
2022/02/18 01:06:16;;;;;;;19.40;14.30;;;;;;;10.07;64.02;98710.34;4977650;28;20470;-92
2022/02/18 01:08:42;;;;;;;23.75;16.73;;;;;;;10.13;63.80;98723.56;4977547;28;20462;-92
2022/02/18 01:11:07;;;;;;;20.25;14.48;;;;;;;8.47;64.07;98489.00;4977547;28;20027;-92
2022/02/18 01:13:34;;;;;;;20.15;16.17;;;;;;;9.70;63.90;98659.63;4978075;28;20061;-92
2022/02/18 01:16:00;;;;;;;21.75;15.93;;;;;;;10.29;63.70;98746.19;4977664;28;20093;-92
2022/02/18 01:18:25;;;;;;;22.67;16.35;;;;;;;10.41;63.89;98739.38;4994856;28;20034;-92
2022/02/18 01:20:51;;;;;;;23.85;15.98;;;;;;;9.70;63.69;98635.09;4994556;28;20022;-92
2022/02/18 01:23:16;;;;;;;20.50;15.32;;;;;;;9.64;64.01;98626.13;4977754;28;20058;-91
2022/02/18 01:25:42;;;;;;;25.05;18.13;;;;;;;9.95;63.93;98680.25;4977336;28;20415;-91
2022/02/18 01:28:07;;;;;;;22.08;16.00;;;;;;;10.39;63.51;98719.44;4994424;28;20033;-92
2022/02/18 01:30:33;;;;;;;20.92;16.10;;;;;;;10.04;63.88;98701.00;4994015;28;20022;-92
2022/02/18 01:32:59;;;;;;;24.30;17.77;;;;;;;10.18;63.56;98696.59;4976951;28;20026;-92
2022/02/18 01:35:25;;;;;;;23.85;15.55;;;;;;;10.14;64.25;98698.81;4976695;28;20068;-92
2022/02/18 01:37:53;;;;;;;23.65;17.05;;;;;;;10.08;64.07;98690.88;4993922;28;20034;-92
2022/02/18 01:40:20;;;;;;;29.85;19.92;;;;;;;9.63;63.94;98632.41;4976847;28;20026;-92
2022/02/18 01:42:46;;;;;;;29.00;19.95;;;;;;;10.33;64.30;98728.16;4976546;28;20367;-92
2022/02/18 01:45:11;;;;;;;28.40;18.05;;;;;;;10.32;63.64;98726.50;4993868;28;20068;-92
2022/02/18 01:47:37;;;;;;;27.25;18.80;;;;;;;9.79;64.24;98676.91;4976567;28;20022;-92
2022/02/18 01:50:04;;;;;;;29.65;19.17;;;;;;;10.32;64.28;98729.16;4993896;28;20447;-92
2022/02/18 01:52:32;;;;;;;31.42;20.52;;;;;;;10.34;64.22;98727.13;4976343;28;20033;-92
2022/02/18 01:54:59;;;;;;;30.75;20.83;;;;;;;10.33;64.19;98730.78;4975567;28;20049;-92
2022/02/18 01:57:25;;;;;;;27.30;19.63;;;;;;;9.88;64.32;98653.84;4993728;28;20420;-92
2022/02/18 01:59:51;;;;;;;22.67;16.23;;;;;;;10.24;64.48;98730.13;4976550;28;20022;-91
2022/02/18 02:02:16;;;;;;;28.25;17.95;;;;;;;8.55;63.94;98427.53;4976371;28;20037;-92
2022/02/18 02:04:45;;;;;;;27.85;20.58;;;;;;;10.23;64.57;98711.88;4976350;28;20046;-92
2022/02/18 02:07:10;;;;;;;25.48;18.60;;;;;;;10.23;64.06;98711.88;4976327;28;20113;-91
2022/02/18 02:09:36;;;;;;;28.40;20.25;;;;;;;9.85;64.67;98652.41;4976282;28;20077;-91
2022/02/18 02:12:03;;;;;;;23.90;18.15;;;;;;;10.17;64.62;98706.31;4976086;28;20035;-92
2022/02/18 02:14:29;;;;;;;26.20;18.58;;;;;;;10.03;64.34;98674.81;4993686;28;20026;-92
2022/02/18 02:16:54;;;;;;;23.48;17.60;;;;;;;10.06;64.56;98711.34;4976370;28;20121;-92
2022/02/18 02:19:19;;;;;;;23.42;18.02;;;;;;;9.44;64.69;98602.28;4976021;28;20483;-92
2022/02/18 02:21:49;;;;;;;26.48;17.98;;;;;;;10.28;64.68;98728.72;4976003;28;20030;-92
2022/02/18 02:24:15;;;;;;;25.83;17.98;;;;;;;9.97;64.60;98686.97;4993690;28;20026;-92
2022/02/18 02:26:41;;;;;;;22.75;18.40;;;;;;;9.93;65.01;98683.09;4976032;28;20092;-91
2022/02/18 02:29:10;;;;;;;24.65;16.92;;;;;;;9.96;64.54;98693.25;4976036;28;20022;-92
2022/02/18 02:31:36;;;;;;;24.63;17.13;;;;;;;9.68;65.18;98664.28;4993028;28;20030;-92
2022/02/18 02:34:03;;;;;;;20.58;16.08;;;;;;;9.79;64.59;98670.84;4975969;28;20103;-92
2022/02/18 02:36:29;;;;;;;22.00;16.55;;;;;;;10.28;64.87;98746.38;4976310;28;20040;-92
2022/02/18 02:38:54;;;;;;;20.95;17.00;;;;;;;9.77;64.99;98670.22;4975879;28;20109;-91
2022/02/18 02:41:20;;;;;;;21.95;17.15;;;;;;;10.17;64.93;98737.16;4975635;28;20022;-91
2022/02/18 02:43:46;;;;;;;33.08;21.27;;;;;;;10.30;64.76;98739.09;4975484;28;20041;-92
2022/02/18 02:46:11;;;;;;;25.55;19.52;;;;;;;10.16;64.96;98725.81;4975550;28;20058;-91
2022/02/18 02:48:36;;;;;;;27.38;18.88;;;;;;;9.78;64.70;98685.03;4992998;28;20508;-92
2022/02/18 02:51:04;;;;;;;23.70;18.25;;;;;;;9.62;64.74;98657.13;4992646;28;20484;-91
2022/02/18 02:53:30;;;;;;;21.02;12.02;;;;;;;9.72;63.68;98659.44;4975294;28;20033;-91
2022/02/18 02:55:55;;;;;;;16.90;12.48;;;;;;;10.41;63.50;98754.41;4992727;28;20100;-92
2022/02/18 02:58:21;;;;;;;11.40;9.00;;;;;;;10.47;62.52;98758.88;4975334;28;20471;-91
2022/02/18 03:00:46;;;;;;;11.05;8.68;;;;;;;10.00;61.74;98691.84;4975595;28;20353;-91
2022/02/18 03:03:12;;;;;;;9.38;7.00;;;;;;;10.22;61.04;98713.69;4975119;28;20030;-91
2022/02/18 03:05:37;;;;;;;6.85;6.03;;;;;;;8.87;59.85;98473.47;4975021;28;20023;-92
2022/02/18 03:08:03;;;;;;;9.43;5.05;;;;;;;10.43;58.94;98707.50;4975111;28;20069;-91
2022/02/18 03:10:29;;;;;;;6.70;4.97;;;;;;;10.96;57.98;98786.88;4974923;28;20034;-91
2022/02/18 03:12:55;;;;;;;8.18;5.28;;;;;;;10.26;58.08;98688.53;4992524;28;20030;-91
2022/02/18 03:15:20;;;;;;;7.68;5.20;;;;;;;10.48;57.50;98719.09;4975225;28;20037;-91
2022/02/18 03:17:46;;;;;;;6.72;4.93;;;;;;;10.66;56.90;98729.13;4975048;28;20034;-91
2022/02/18 03:20:12;;;;;;;6.25;4.75;;;;;;;10.75;56.51;98751.69;4993089;28;20026;-92
2022/02/18 03:22:38;;;;;;;7.55;5.13;;;;;;;11.11;56.80;98814.75;4975215;28;20031;-91
2022/02/18 03:25:03;;;;;;;13.43;8.68;;;;;;;10.94;56.53;98807.41;4974947;28;20092;-90
2022/02/18 03:27:29;;;;;;;11.85;8.93;;;;;;;11.10;56.25;98838.75;4974323;28;20022;-90
2022/02/18 03:29:55;;;;;;;15.43;12.15;;;;;;;10.66;56.34;98771.34;4974610;28;20594;-90
2022/02/18 03:32:21;;;;;;;14.07;10.90;;;;;;;10.39;56.54;98759.03;4974604;28;20026;-90
2022/02/18 03:34:46;;;;;;;13.35;9.63;;;;;;;9.96;56.08;98710.88;4974560;28;20419;-90
2022/02/18 03:37:11;;;;;;;9.25;6.65;;;;;;;10.14;56.36;98763.94;4974737;28;20022;-90
2022/02/18 03:39:37;;;;;;;8.35;6.32;;;;;;;10.38;55.72;98781.13;4975607;28;20032;-89
2022/02/18 03:42:03;;;;;;;9.02;6.78;;;;;;;10.50;55.34;98827.94;5004610;28;20109;-88
2022/02/18 03:44:29;;;;;;;16.83;11.35;;;;;;;10.48;55.53;98802.75;4974352;28;20034;-89
2022/02/18 03:46:54;;;;;;;15.15;12.20;;;;;;;11.12;55.28;98911.50;4974259;28;20033;-90
2022/02/18 03:49:20;;;;;;;20.50;15.77;;;;;;;11.02;56.04;98932.19;4974307;28;20153;-90
2022/02/18 03:51:45;;;;;;;21.55;14.10;;;;;;;10.27;56.09;98831.81;4991835;28;20033;-90
2022/02/18 03:54:11;;;;;;;18.00;14.60;;;;;;;10.83;56.40;98922.34;4974070;28;20431;-90
2022/02/18 03:56:36;;;;;;;14.10;12.45;;;;;;;10.88;56.14;98934.97;4974124;28;20113;-90
2022/02/18 03:59:02;;;;;;;14.52;9.93;;;;;;;10.87;56.13;98922.75;4991866;28;20088;-90
2022/02/18 04:01:28;;;;;;;11.45;10.15;;;;;;;10.32;55.97;98861.09;4974073;28;20026;-90
2022/02/18 04:03:53;;;;;;;12.68;11.20;;;;;;;10.42;55.87;98901.97;4974037;28;20032;-90
2022/02/18 04:06:19;;;;;;;14.05;11.43;;;;;;;10.69;56.11;98926.72;4974146;28;20030;-90
2022/02/18 04:08:44;;;;;;;13.68;9.57;;;;;;;10.37;55.54;98903.53;4974038;28;20569;-90
2022/02/18 04:11:10;;;;;;;11.57;9.25;;;;;;;10.47;55.81;98915.41;4974141;28;20049;-90
2022/02/18 04:13:35;;;;;;;13.02;8.02;;;;;;;10.57;55.17;98935.38;4991336;28;20030;-90
2022/02/18 04:16:01;;;;;;;17.98;10.30;;;;;;;10.94;54.95;99000.22;4973685;28;20415;-90
2022/02/18 04:18:26;;;;;;;13.00;10.70;;;;;;;10.33;54.98;98918.94;4975470;28;20035;-90
2022/02/18 04:20:52;;;;;;;14.85;12.15;;;;;;;10.92;55.07;99002.22;4977697;28;20034;-90
2022/02/18 04:23:18;;;;;;;14.27;11.20;;;;;;;10.93;55.26;99011.78;4977560;28;20117;-91
2022/02/18 04:25:44;;;;;;;11.10;8.98;;;;;;;10.04;55.28;98874.25;4977760;28;20030;-92
2022/02/18 04:28:09;;;;;;;10.23;6.82;;;;;;;10.60;54.30;98980.69;4995476;28;20109;-91
2022/02/18 04:30:35;;;;;;;15.13;5.60;;;;;;;10.79;53.78;99005.59;4977680;28;20026;-91
2022/02/18 04:33:00;;;;;;;7.75;5.40;;;;;;;10.98;54.20;99046.34;4977800;28;20042;-91
2022/02/18 04:35:26;;;;;;;7.15;4.78;;;;;;;10.54;53.42;98955.06;4977767;28;20117;-91
2022/02/18 04:37:52;;;;;;;5.85;4.22;;;;;;;10.65;52.73;98975.63;4977662;28;20084;-91
2022/02/18 04:40:18;;;;;;;6.38;3.40;;;;;;;10.82;52.95;99016.59;4977619;28;20110;-91
2022/02/18 04:42:45;;;;;;;4.35;3.70;;;;;;;10.98;52.22;99031.31;4978033;28;20037;-91
2022/02/18 04:45:10;;;;;;;4.07;3.45;;;;;;;10.92;51.65;99024.16;4995224;28;20173;-91
2022/02/18 04:47:36;;;;;;;10.40;3.72;;;;;;;11.06;51.19;99048.84;4995170;28;20081;-91
2022/02/18 04:50:03;;;;;;;4.35;2.85;;;;;;;9.33;50.54;98789.84;4977555;28;20026;-91
2022/02/18 04:52:29;;;;;;;6.32;2.05;;;;;;;10.14;50.14;98938.03;4977692;28;20140;-91
2022/02/18 04:54:54;;;;;;;10.48;1.58;;;;;;;10.34;49.61;98975.97;4977656;28;20068;-92
2022/02/18 04:57:20;;;;;;;9.65;2.03;;;;;;;10.81;49.07;99041.34;4977438;28;20030;-91
2022/02/18 04:59:45;;;;;;;9.23;1.60;;;;;;;10.28;48.79;98957.47;4994791;28;20034;-91
2022/02/18 05:02:11;;;;;;;6.05;1.70;;;;;;;10.70;49.08;99036.59;4994775;28;20037;-91
2022/02/18 05:04:36;;;;;;;4.07;1.52;;;;;;;10.97;48.82;99069.31;4977267;28;20448;-91
2022/02/18 05:07:02;;;;;;;4.07;1.85;;;;;;;10.77;49.05;99044.56;4977204;28;20034;-91
2022/02/18 05:09:27;;;;;;;4.47;2.75;;;;;;;10.61;48.35;99016.63;4977027;28;20116;-91
2022/02/18 05:11:53;;;;;;;4.50;3.10;;;;;;;11.12;48.85;99124.69;4977145;28;20034;-91
2022/02/18 05:14:18;;;;;;;6.63;2.03;;;;;;;11.06;48.73;99128.09;4977205;28;20053;-91
2022/02/18 05:16:45;;;;;;;5.88;2.90;;;;;;;10.50;48.61;99033.00;4976894;28;20034;-91
2022/02/18 05:19:10;;;;;;;6.30;1.90;;;;;;;10.49;48.53;99047.19;4977119;28;20133;-91
2022/02/18 05:21:39;;;;;;;6.57;1.83;;;;;;;11.02;48.28;99146.16;4976877;28;20567;-91
2022/02/18 05:24:06;;;;;;;5.43;1.67;;;;;;;11.35;47.89;99186.09;4994506;28;20030;-91
2022/02/18 05:26:32;;;;;;;5.47;2.10;;;;;;;11.30;47.96;99203.53;4994179;28;20030;-91
2022/02/18 05:28:58;;;;;;;6.50;1.75;;;;;;;11.36;48.12;99203.59;4976246;28;20029;-91
2022/02/18 05:31:24;;;;;;;6.90;1.73;;;;;;;11.37;48.27;99178.78;4976158;28;20031;-91
2022/02/18 05:33:50;;;;;;;6.68;1.95;;;;;;;10.97;48.24;99131.88;4976775;28;20030;-91
2022/02/18 05:36:15;;;;;;;6.60;1.30;;;;;;;11.01;46.81;99168.31;4976708;28;20030;-91
2022/02/18 05:38:43;;;;;;;8.65;2.13;;;;;;;9.86;45.62;98975.72;4976705;28;20084;-91
2022/02/18 05:41:12;;;;;;;11.75;1.70;;;;;;;11.27;45.58;99217.13;4993912;28;20064;-91
2022/02/18 05:43:37;;;;;;;12.07;1.70;;;;;;;10.97;45.33;99168.88;4976427;28;20026;-91
2022/02/18 05:46:03;;;;;;;6.30;1.67;;;;;;;10.90;44.83;99170.63;4976595;28;20027;-91
2022/02/18 05:48:28;;;;;;;7.05;1.83;;;;;;;11.00;44.60;99181.69;4993830;28;20030;-91
2022/02/18 05:50:54;;;;;;;2.10;1.30;;;;;;;11.23;44.70;99239.66;4993569;28;20541;-92
2022/02/18 05:53:19;;;;;;;6.10;1.55;;;;;;;10.62;44.62;99105.38;4976358;28;20029;-91
2022/02/18 05:55:45;;;;;;;3.83;1.65;;;;;;;10.76;45.54;99138.81;4976149;28;20495;-91
2022/02/18 05:58:10;;;;;;;4.80;1.63;;;;;;;9.85;45.05;98983.81;4993770;28;20026;-91
2022/02/18 06:00:36;;;;;;;5.50;1.80;;;;;;;10.99;46.29;99195.91;4976228;28;20053;-91
2022/02/18 06:03:01;;;;;;;9.52;2.10;;;;;;;10.69;45.98;99132.66;4976068;28;20558;-91
2022/02/18 06:05:26;;;;;;;8.32;1.85;;;;;;;10.94;46.13;99166.59;4976054;28;20040;-91
2022/02/18 06:07:53;;;;;;;10.55;1.98;;;;;;;10.13;45.83;99068.28;4976313;28;20121;-91
2022/02/18 06:10:18;;;;;;;7.40;2.13;;;;;;;10.56;45.23;99119.34;4993541;28;20034;-91
2022/02/18 06:12:43;;;;;;;6.82;1.83;;;;;;;9.86;44.94;98986.25;4993402;28;20030;-90
2022/02/18 06:15:09;;;;;;;7.80;1.95;;;;;;;11.09;44.99;99218.38;4975992;28;20030;-91
2022/02/18 06:17:37;;;;;;;8.20;2.55;;;;;;;11.10;44.82;99195.41;4975914;28;20423;-91
2022/02/18 06:20:03;;;;;;;14.15;6.40;;;;;;;9.99;44.98;99035.69;4980103;28;20544;-91
2022/02/18 06:22:30;;;;;;;9.00;3.00;;;;;;;10.34;44.29;99086.00;4955890;28;20428;-91
2022/02/18 06:24:56;;;;;;;3.10;1.88;;;;;;;10.69;44.29;99139.75;4972833;28;20030;-91
2022/02/18 06:27:21;;;;;;;6.82;3.92;;;;;;;10.92;43.81;99181.81;4973441;28;20061;-91
2022/02/18 06:29:49;;;;;;;7.05;2.65;;;;;;;11.22;43.27;99259.97;4960994;28;20041;-91
2022/02/18 06:32:15;;;;;;;9.48;4.90;;;;;;;11.16;42.70;99199.97;4974928;28;20113;-90
2022/02/18 06:34:40;;;;;;;7.25;2.08;;;;;;;11.16;42.79;99199.16;4975557;28;20519;-90
2022/02/18 06:37:06;;;;;;;7.13;3.50;;;;;;;10.24;42.57;99051.19;4974090;28;20043;-90
2022/02/18 06:39:35;;;;;;;6.15;2.00;;;;;;;10.78;43.01;99088.47;4960289;28;20058;-91
2022/02/18 06:42:01;;;;;;;5.22;3.67;;;;;;;10.95;42.36;99103.03;4955914;28;20034;-90
2022/02/18 06:44:26;;;;;;;3.92;1.40;;;;;;;11.40;42.27;99178.41;4973939;28;20062;-90
2022/02/18 06:46:52;;;;;;;4.55;1.80;;;;;;;11.76;42.19;99209.97;4974179;28;20484;-90
2022/02/18 06:49:18;;;;;;;6.60;2.30;;;;;;;11.82;41.97;99228.75;4985011;28;20542;-90
2022/02/18 06:51:43;;;;;;;6.20;1.73;;;;;;;11.36;41.68;99178.97;4964786;28;20130;-90
2022/02/18 06:54:08;;;;;;;7.93;1.90;;;;;;;11.09;40.34;99162.88;4955905;28;20507;-91
2022/02/18 06:56:34;;;;;;;10.20;1.50;;;;;;;10.77;40.86;99092.09;4955943;28;20488;-90
2022/02/18 06:58:59;;;;;;;7.65;1.92;;;;;;;11.44;40.93;99192.88;4957371;28;20028;-90
2022/02/18 07:01:25;;;;;;;6.13;1.80;;;;;;;11.50;39.68;99193.09;4960483;28;20027;-90
2022/02/18 07:03:50;;;;;;;6.38;1.48;;;;;;;11.05;39.63;99110.63;4954114;28;20089;-90
2022/02/18 07:06:16;;;;;;;17.80;8.50;;;;;;;11.31;38.67;99170.81;4953945;28;20041;-91
2022/02/18 07:08:41;;;;;;;12.82;2.35;;;;;;;11.85;38.31;99212.50;4969161;28;20039;-90
2022/02/18 07:11:07;;;;;;;12.20;2.75;;;;;;;11.99;38.14;99233.56;4973267;28;20046;-90
2022/02/18 07:13:32;;;;;;;10.13;2.38;;;;;;;11.73;37.29;99172.50;4959595;28;20100;-90
2022/02/18 07:15:58;;;;;;;13.68;2.30;;;;;;;11.42;36.88;99120.88;4958865;28;20457;-90
2022/02/18 07:18:23;;;;;;;11.60;1.90;;;;;;;12.04;36.47;99215.28;4963322;28;20073;-90
2022/02/18 07:20:49;;;;;;;16.65;3.03;;;;;;;11.43;35.71;99143.66;4946614;28;20042;-89
2022/02/18 07:23:16;;;;;;;13.45;3.47;;;;;;;11.61;35.53;99150.28;4953458;28;20030;-90
2022/02/18 07:25:41;;;;;;;18.70;2.13;;;;;;;12.01;35.01;99207.75;4954938;28;20093;-90
2022/02/18 07:28:07;;;;;;;15.50;2.00;;;;;;;11.40;34.53;99117.59;4965025;28;20039;-90
2022/02/18 07:30:32;;;;;;;21.45;3.20;;;;;;;11.80;34.60;99168.13;4952542;28;20031;-88
2022/02/18 07:32:58;;;;;;;15.82;3.88;;;;;;;11.90;34.05;99192.41;4953595;28;20314;-90
2022/02/18 07:35:26;;;;;;;13.73;3.63;;;;;;;11.52;34.04;99130.28;4952492;28;20030;-89
2022/02/18 07:37:51;;;;;;;16.33;3.97;;;;;;;12.22;33.62;99219.25;4953266;28;20125;-89
2022/02/18 07:40:17;;;;;;;26.77;4.50;;;;;;;11.89;32.89;99156.38;4953022;28;20190;-90
2022/02/18 07:42:43;;;;;;;17.25;3.00;;;;;;;12.30;32.58;99232.31;4947767;28;20073;-90
2022/02/18 07:45:12;;;;;;;16.45;2.28;;;;;;;12.22;32.32;99200.72;4950614;28;20575;-89
2022/02/18 07:47:38;;;;;;;8.18;2.60;;;;;;;11.77;31.90;99120.88;4945923;28;20027;-89
2022/02/18 07:50:05;;;;;;;8.05;2.67;;;;;;;12.25;32.13;99205.63;4950549;28;20038;-89
2022/02/18 07:52:31;;;;;;;71.93;7.22;;;;;;;11.77;31.25;99136.72;4971652;28;20039;-89
2022/02/18 07:54:56;;;;;;;8.35;1.90;;;;;;;12.50;30.89;99258.88;4973736;28;20034;-88
2022/02/18 07:57:23;;;;;;;7.30;1.85;;;;;;;11.87;31.25;99128.47;4958443;28;20026;-88
2022/02/18 07:59:49;;;;;;;3.65;1.13;;;;;;;12.14;31.17;99174.41;4957703;28;20065;-89
2022/02/18 08:02:15;;;;;;;3.58;1.65;;;;;;;11.77;31.25;99118.22;4957107;28;20023;-89
2022/02/18 08:04:40;;;;;;;10.43;1.50;;;;;;;12.51;30.64;99245.44;4970117;28;20037;-88
2022/02/18 08:07:06;;;;;;;6.78;1.27;;;;;;;12.52;31.12;99209.19;4972908;28;20039;-89
2022/02/18 08:09:33;;;;;;;6.07;1.60;;;;;;;12.62;30.83;99244.03;4981203;28;20046;-87
2022/02/18 08:11:59;;;;;;;9.02;2.53;;;;;;;12.22;30.28;99155.72;4967874;28;20050;-89
2022/02/18 08:14:25;;;;;;;10.75;2.13;;;;;;;12.50;29.88;99216.50;4982112;28;20111;-88
2022/02/18 08:16:51;;;;;;;9.38;1.60;;;;;;;12.43;29.89;99197.13;4975168;28;20110;-89
2022/02/18 08:19:20;;;;;;;12.40;1.98;;;;;;;12.17;29.85;99163.44;4955789;28;20562;-87
2022/02/18 08:21:47;;;;;;;12.77;1.95;;;;;;;12.06;30.09;99152.41;4961318;28;20042;-88
2022/02/18 08:24:17;;;;;;;6.47;1.77;;;;;;;12.54;30.30;99218.56;4956522;28;20054;-89
2022/02/18 08:26:44;;;;;;;7.43;1.58;;;;;;;12.51;30.14;99266.63;4956153;28;20611;-88
2022/02/18 08:29:09;;;;;;;7.55;1.65;;;;;;;12.74;30.49;99258.38;4976180;28;20031;-90
2022/02/18 08:31:34;;;;;;;5.45;1.23;;;;;;;12.66;30.15;99254.06;4957808;28;20034;-90
2022/02/18 08:34:00;;;;;;;4.05;1.52;;;;;;;12.28;30.54;99174.28;4958406;28;20030;-89
2022/02/18 08:36:26;;;;;;;10.07;1.42;;;;;;;12.57;30.46;99231.41;4958438;28;20060;-89
2022/02/18 08:38:51;;;;;;;7.88;1.40;;;;;;;12.44;29.78;99218.13;4975035;28;20034;-89
2022/02/18 08:41:17;;;;;;;2.35;0.93;;;;;;;12.43;30.33;99203.25;4964842;28;20023;-89
2022/02/18 08:43:42;;;;;;;7.43;1.40;;;;;;;12.45;30.11;99182.69;4964512;28;20027;-89
2022/02/18 08:46:08;;;;;;;2.95;0.93;;;;;;;12.07;29.97;99140.81;4965007;28;20027;-90
2022/02/18 08:48:33;;;;;;;4.88;1.17;;;;;;;12.63;29.13;99246.53;4956049;28;20081;-90
2022/02/18 08:50:59;;;;;;;3.35;1.23;;;;;;;12.72;28.99;99225.97;4956478;28;20530;-89
2022/02/18 08:53:25;;;;;;;4.50;2.00;;;;;;;12.87;28.59;99233.75;4958454;28;20423;-90
2022/02/18 08:55:51;;;;;;;2.85;1.88;;;;;;;12.44;28.69;99177.59;4956720;28;20113;-90
2022/02/18 08:58:17;;;;;;;3.15;1.40;;;;;;;12.73;28.49;99220.47;4974961;28;20093;-89
2022/02/18 09:00:42;;;;;;;7.25;1.60;;;;;;;12.95;28.56;99252.13;4956898;28;20118;-89
2022/02/18 09:03:10;;;;;;;8.98;1.88;;;;;;;12.90;28.10;99246.59;4957961;28;20031;-90
2022/02/18 09:05:35;;;;;;;8.23;1.00;;;;;;;12.98;28.08;99271.09;4969215;28;20084;-90
2022/02/18 09:08:01;;;;;;;2.88;1.30;;;;;;;12.23;27.53;99191.75;4957871;28;20038;-88
2022/02/18 09:10:26;;;;;;;7.00;2.08;;;;;;;12.96;27.39;99267.00;4957497;28;20026;-89
2022/02/18 09:12:52;;;;;;;4.25;2.50;;;;;;;13.25;27.89;99292.38;4957473;28;20030;-88
2022/02/18 09:15:18;;;;;;;6.50;1.25;;;;;;;12.75;27.57;99187.69;4968854;28;20488;-89
2022/02/18 09:17:44;;;;;;;3.30;1.20;;;;;;;12.88;27.01;99246.00;4954022;28;20073;-89
2022/02/18 09:20:10;;;;;;;6.63;0.93;;;;;;;12.49;26.17;99204.28;4954035;28;20026;-88
2022/02/18 09:22:35;;;;;;;5.88;1.30;;;;;;;12.33;26.11;99149.84;4973920;28;20508;-89
2022/02/18 09:25:01;;;;;;;2.45;1.35;;;;;;;12.76;26.16;99224.56;4955771;28;20034;-89
2022/02/18 09:27:26;;;;;;;3.75;1.58;;;;;;;12.79;26.38;99242.72;4958744;28;20479;-89
2022/02/18 09:29:51;;;;;;;6.43;2.13;;;;;;;13.30;26.79;99289.94;4954696;28;20500;-89
2022/02/18 09:32:20;;;;;;;5.25;1.70;;;;;;;12.07;26.63;99084.41;4973151;28;20031;-89
2022/02/18 09:34:45;;;;;;;5.13;1.70;;;;;;;13.23;27.17;99268.72;4954365;28;20049;-87
2022/02/18 09:37:15;;;;;;;4.13;1.40;;;;;;;13.65;27.01;99333.06;4956520;28;20488;-89
2022/02/18 09:39:44;;;;;;;8.88;2.38;;;;;;;13.21;27.12;99262.81;4974347;28;20030;-87
2022/02/18 09:42:14;;;;;;;4.05;1.20;;;;;;;13.72;27.13;99322.44;4953633;28;20078;-86
2022/02/18 09:44:43;;;;;;;6.85;1.70;;;;;;;13.81;27.48;99337.16;4956645;28;20551;-87
2022/02/18 09:47:12;;;;;;;5.30;1.80;;;;;;;13.63;27.24;99297.97;4973807;28;20033;-87
2022/02/18 09:49:40;;;;;;;5.82;2.05;;;;;;;13.70;27.45;99297.97;4974310;28;20030;-87
2022/02/18 09:52:07;;;;;;;11.68;2.35;;;;;;;13.63;27.82;99271.44;4956317;28;20065;-86
2022/02/18 09:54:33;;;;;;;7.65;1.85;;;;;;;13.70;27.36;99304.09;4962262;28;20047;-86
2022/02/18 09:57:00;;;;;;;8.23;2.65;;;;;;;13.93;27.56;99301.81;4973567;28;20037;-87
2022/02/18 09:59:27;;;;;;;5.25;1.70;;;;;;;13.86;27.09;99271.81;4973202;28;20534;-87
2022/02/18 10:01:53;;;;;;;5.03;1.20;;;;;;;13.39;26.58;99195.13;4955836;28;20469;-87
2022/02/18 10:04:18;;;;;;;1.88;0.98;;;;;;;14.18;26.98;99295.91;4955671;28;20031;-86
2022/02/18 10:06:44;;;;;;;4.65;1.50;;;;;;;14.04;27.06;99273.03;4955688;28;20453;-87
2022/02/18 10:09:09;;;;;;;4.90;1.05;;;;;;;13.73;26.55;99237.34;4955466;28;20439;-87
2022/02/18 10:11:52;;;;;;;2.05;1.25;;;;;;;14.16;26.65;99268.75;4955545;28;20035;-87
2022/02/18 10:14:17;;;;;;;2.53;1.08;;;;;;;13.80;26.13;99229.38;4955969;28;20031;-87
2022/02/18 10:16:44;;;;;;;5.50;1.50;;;;;;;14.40;26.48;99326.50;4973127;28;20034;-86
2022/02/18 10:19:10;;;;;;;7.03;2.65;;;;;;;14.47;26.32;99298.09;4956075;28;20038;-86
2022/02/18 10:21:37;;;;;;;5.93;2.22;;;;;;;14.25;26.08;99257.69;4955779;28;20034;-86
2022/02/18 10:24:12;;;;;;;3.22;1.42;;;;;;;14.57;25.10;99306.44;4973150;28;20110;-86
2022/02/18 10:26:42;;;;;;;3.42;1.33;;;;;;;14.57;25.82;99305.63;4973776;28;20096;-86
2022/02/18 10:29:18;;;;;;;2.50;1.80;;;;;;;14.51;25.76;99285.22;4956467;28;20030;-86
2022/02/18 10:31:44;;;;;;;5.55;1.27;;;;;;;13.79;24.52;99164.88;4973246;28;20400;-86
2022/02/18 10:34:11;;;;;;;3.28;1.92;;;;;;;14.43;25.38;99254.41;4955822;28;20081;-86
2022/02/18 10:36:42;;;;;;;4.68;1.80;;;;;;;14.57;25.49;99253.31;4973179;28;20026;-86
2022/02/18 10:39:28;;;;;;;3.88;2.08;;;;;;;14.94;23.73;99286.28;4956043;28;20054;-86
2022/02/18 10:42:00;;;;;;;2.30;1.27;;;;;;;14.88;24.81;99299.63;4973148;28;20027;-86
2022/02/18 10:44:35;;;;;;;2.97;1.05;;;;;;;14.62;24.04;99250.03;4955085;28;20416;-86
2022/02/18 10:47:05;;;;;;;6.70;1.45;;;;;;;14.35;25.30;99201.47;4955120;28;20034;-86
2022/02/18 10:49:36;;;;;;;3.20;1.00;;;;;;;14.67;24.90;99238.75;4955245;28;20031;-86
2022/02/18 10:52:11;;;;;;;2.42;1.70;;;;;;;14.34;24.98;99177.78;4955143;28;20023;-86
2022/02/18 10:54:37;;;;;;;4.45;2.10;;;;;;;14.88;25.00;99254.44;4972455;28;20089;-87
2022/02/18 10:57:24;;;;;;;5.35;2.35;;;;;;;14.80;24.03;99254.66;4955121;28;20023;-86
2022/02/18 10:59:50;;;;;;;5.22;1.80;;;;;;;15.15;24.41;99287.81;4973107;28;20038;-86
2022/02/18 11:02:42;;;;;;;3.42;1.25;;;;;;;15.14;24.83;99304.78;4955672;28;20042;-86
2022/02/18 11:05:20;;;;;;;4.90;1.85;;;;;;;15.25;25.01;99277.50;4955762;28;20034;-86
2022/02/18 11:07:45;;;;;;;3.33;2.20;;;;;;;15.21;24.63;99260.34;4973180;28;20411;-86
2022/02/18 11:10:30;;;;;;;9.80;2.50;;;;;;;15.26;22.91;99273.81;4972930;28;20030;-86
2022/02/18 11:12:56;;;;;;;4.70;2.55;;;;;;;14.67;24.47;99193.59;4956231;28;20035;-86
2022/02/18 11:15:23;;;;;;;3.92;1.45;;;;;;;15.02;24.78;99223.25;4976627;28;20109;-86
2022/02/18 11:17:50;;;;;;;4.32;1.55;;;;;;;15.42;24.29;99304.41;4981170;28;20135;-86
2022/02/18 11:20:16;;;;;;;4.03;1.70;;;;;;;14.73;23.79;99174.94;4972826;28;20067;-86
2022/02/18 11:22:44;;;;;;;3.25;1.67;;;;;;;14.25;24.12;99093.06;4978920;28;20054;-86
2022/02/18 11:25:11;;;;;;;9.90;1.92;;;;;;;15.14;23.65;99250.78;4972314;28;20034;-86